sensor_id;sensor_type;location;lat;lon;timestamp;temperature;humidity
10263;DHT22;5177;50.068;8.156;2022-11-02T00:00:55;9.50;99.90
10263;DHT22;5177;50.068;8.156;2022-11-02T00:03:21;9.50;99.90
10263;DHT22;5177;50.068;8.156;2022-11-02T00:05:47;9.40;99.90
10263;DHT22;5177;50.068;8.156;2022-11-02T00:08:12;9.40;99.90
10263;DHT22;5177;50.068;8.156;2022-11-02T00:10:38;9.40;99.90
10263;DHT22;5177;50.068;8.156;2022-11-02T00:13:03;9.40;99.90
10263;DHT22;5177;50.068;8.156;2022-11-02T00:15:30;9.30;99.90
10263;DHT22;5177;50.068;8.156;2022-11-02T00:18:03;9.30;99.90
10263;DHT22;5177;50.068;8.156;2022-11-02T00:20:30;9.30;99.90
10263;DHT22;5177;50.068;8.156;2022-11-02T00:22:56;9.30;99.90
10263;DHT22;5177;50.068;8.156;2022-11-02T00:25:22;9.20;99.90
10263;DHT22;5177;50.068;8.156;2022-11-02T00:27:49;9.20;99.90
10263;DHT22;5177;50.068;8.156;2022-11-02T00:30:14;9.20;99.90
10263;DHT22;5177;50.068;8.156;2022-11-02T00:32:40;9.20;99.90
10263;DHT22;5177;50.068;8.156;2022-11-02T00:35:05;9.20;99.90
10263;DHT22;5177;50.068;8.156;2022-11-02T00:37:31;9.20;99.90
10263;DHT22;5177;50.068;8.156;2022-11-02T00:39:57;9.20;99.90
10263;DHT22;5177;50.068;8.156;2022-11-02T00:42:22;9.20;99.90
10263;DHT22;5177;50.068;8.156;2022-11-02T00:44:48;9.10;99.90
10263;DHT22;5177;50.068;8.156;2022-11-02T00:47:13;9.10;99.90
10263;DHT22;5177;50.068;8.156;2022-11-02T00:49:39;9.10;99.90
10263;DHT22;5177;50.068;8.156;2022-11-02T00:52:04;9.00;99.90
10263;DHT22;5177;50.068;8.156;2022-11-02T00:54:30;9.00;99.90
10263;DHT22;5177;50.068;8.156;2022-11-02T00:56:55;9.00;99.90
10263;DHT22;5177;50.068;8.156;2022-11-02T00:59:21;9.00;99.90
10263;DHT22;5177;50.068;8.156;2022-11-02T01:01:46;9.00;99.90
10263;DHT22;5177;50.068;8.156;2022-11-02T01:04:14;9.00;99.90
10263;DHT22;5177;50.068;8.156;2022-11-02T01:06:40;8.90;99.90
10263;DHT22;5177;50.068;8.156;2022-11-02T01:09:06;8.90;99.90
10263;DHT22;5177;50.068;8.156;2022-11-02T01:11:31;8.90;99.90
10263;DHT22;5177;50.068;8.156;2022-11-02T01:13:56;8.90;99.90
10263;DHT22;5177;50.068;8.156;2022-11-02T01:16:22;8.90;99.90
10263;DHT22;5177;50.068;8.156;2022-11-02T01:18:51;8.90;99.90
10263;DHT22;5177;50.068;8.156;2022-11-02T01:21:17;8.80;99.90
10263;DHT22;5177;50.068;8.156;2022-11-02T01:23:43;8.80;99.90
10263;DHT22;5177;50.068;8.156;2022-11-02T01:26:08;8.80;99.90
10263;DHT22;5177;50.068;8.156;2022-11-02T01:28:34;8.80;99.90
10263;DHT22;5177;50.068;8.156;2022-11-02T01:31:00;8.80;99.90
10263;DHT22;5177;50.068;8.156;2022-11-02T01:33:26;8.70;99.90
10263;DHT22;5177;50.068;8.156;2022-11-02T01:36:04;8.70;99.90
10263;DHT22;5177;50.068;8.156;2022-11-02T01:38:30;8.70;99.90
10263;DHT22;5177;50.068;8.156;2022-11-02T01:40:56;8.60;99.90
10263;DHT22;5177;50.068;8.156;2022-11-02T01:43:25;8.60;99.90
10263;DHT22;5177;50.068;8.156;2022-11-02T01:45:55;8.60;99.90
10263;DHT22;5177;50.068;8.156;2022-11-02T01:48:25;8.60;99.90
10263;DHT22;5177;50.068;8.156;2022-11-02T01:50:51;8.60;99.90
10263;DHT22;5177;50.068;8.156;2022-11-02T01:53:17;8.60;99.90
10263;DHT22;5177;50.068;8.156;2022-11-02T01:55:43;8.60;99.90
10263;DHT22;5177;50.068;8.156;2022-11-02T01:58:09;8.60;99.90
10263;DHT22;5177;50.068;8.156;2022-11-02T02:00:36;8.60;99.90
10263;DHT22;5177;50.068;8.156;2022-11-02T02:05:35;8.60;99.90
10263;DHT22;5177;50.068;8.156;2022-11-02T02:08:03;8.60;99.90
10263;DHT22;5177;50.068;8.156;2022-11-02T02:10:28;8.60;99.90
10263;DHT22;5177;50.068;8.156;2022-11-02T02:12:54;8.60;99.90
10263;DHT22;5177;50.068;8.156;2022-11-02T02:15:20;8.60;99.90
10263;DHT22;5177;50.068;8.156;2022-11-02T02:18:31;8.60;99.90
10263;DHT22;5177;50.068;8.156;2022-11-02T02:20:41;8.50;99.90
10263;DHT22;5177;50.068;8.156;2022-11-02T02:25:51;8.50;99.90
10263;DHT22;5177;50.068;8.156;2022-11-02T02:30:50;8.50;99.90
10263;DHT22;5177;50.068;8.156;2022-11-02T02:33:23;8.40;99.90
10263;DHT22;5177;50.068;8.156;2022-11-02T02:35:52;8.50;99.90
10263;DHT22;5177;50.068;8.156;2022-11-02T02:38:27;8.50;99.90
10263;DHT22;5177;50.068;8.156;2022-11-02T02:41:01;8.50;99.90
10263;DHT22;5177;50.068;8.156;2022-11-02T02:43:31;8.50;99.90
10263;DHT22;5177;50.068;8.156;2022-11-02T02:46:41;8.50;99.90
10263;DHT22;5177;50.068;8.156;2022-11-02T02:48:47;8.60;99.90
10263;DHT22;5177;50.068;8.156;2022-11-02T02:51:18;8.60;99.90
10263;DHT22;5177;50.068;8.156;2022-11-02T02:53:47;8.60;99.90
10263;DHT22;5177;50.068;8.156;2022-11-02T02:56:14;8.60;99.90
10263;DHT22;5177;50.068;8.156;2022-11-02T02:58:48;8.60;99.90
10263;DHT22;5177;50.068;8.156;2022-11-02T03:01:15;8.60;99.90
10263;DHT22;5177;50.068;8.156;2022-11-02T03:03:41;8.80;99.90
10263;DHT22;5177;50.068;8.156;2022-11-02T03:06:22;8.80;99.90
10263;DHT22;5177;50.068;8.156;2022-11-02T03:09:02;8.80;99.90
10263;DHT22;5177;50.068;8.156;2022-11-02T03:11:30;8.90;99.90
10263;DHT22;5177;50.068;8.156;2022-11-02T03:16:52;9.00;99.90
10263;DHT22;5177;50.068;8.156;2022-11-02T03:21:41;9.00;99.90
10263;DHT22;5177;50.068;8.156;2022-11-02T03:24:18;9.00;99.90
10263;DHT22;5177;50.068;8.156;2022-11-02T03:29:11;9.10;99.90
10263;DHT22;5177;50.068;8.156;2022-11-02T03:36:55;9.10;99.90
10263;DHT22;5177;50.068;8.156;2022-11-02T03:39:45;9.10;99.90
10263;DHT22;5177;50.068;8.156;2022-11-02T03:42:08;9.10;99.90
10263;DHT22;5177;50.068;8.156;2022-11-02T03:44:36;9.10;99.90
10263;DHT22;5177;50.068;8.156;2022-11-02T03:47:02;9.20;99.90
10263;DHT22;5177;50.068;8.156;2022-11-02T03:49:29;9.20;99.90
10263;DHT22;5177;50.068;8.156;2022-11-02T03:51:57;9.20;99.90
10263;DHT22;5177;50.068;8.156;2022-11-02T03:56:50;9.30;99.90
10263;DHT22;5177;50.068;8.156;2022-11-02T03:59:17;9.30;99.90
10263;DHT22;5177;50.068;8.156;2022-11-02T04:01:46;9.40;99.90
10263;DHT22;5177;50.068;8.156;2022-11-02T04:04:12;9.40;99.90
10263;DHT22;5177;50.068;8.156;2022-11-02T04:06:38;9.30;99.90
10263;DHT22;5177;50.068;8.156;2022-11-02T04:09:04;9.40;99.90
10263;DHT22;5177;50.068;8.156;2022-11-02T04:11:29;9.40;99.90
10263;DHT22;5177;50.068;8.156;2022-11-02T04:14:14;9.40;99.90
10263;DHT22;5177;50.068;8.156;2022-11-02T04:16:58;9.40;99.90
10263;DHT22;5177;50.068;8.156;2022-11-02T04:19:42;9.40;99.90
10263;DHT22;5177;50.068;8.156;2022-11-02T04:22:08;9.30;99.90
10263;DHT22;5177;50.068;8.156;2022-11-02T04:24:52;9.30;99.90
10263;DHT22;5177;50.068;8.156;2022-11-02T04:27:36;9.30;99.90
10263;DHT22;5177;50.068;8.156;2022-11-02T04:30:02;9.30;99.90
10263;DHT22;5177;50.068;8.156;2022-11-02T04:32:27;9.30;99.90
10263;DHT22;5177;50.068;8.156;2022-11-02T04:35:12;9.30;99.90
10263;DHT22;5177;50.068;8.156;2022-11-02T04:37:40;9.30;99.90
10263;DHT22;5177;50.068;8.156;2022-11-02T04:40:25;9.20;99.90
10263;DHT22;5177;50.068;8.156;2022-11-02T04:42:51;9.20;99.90
10263;DHT22;5177;50.068;8.156;2022-11-02T04:45:16;9.20;99.90
10263;DHT22;5177;50.068;8.156;2022-11-02T04:47:42;9.10;99.90
10263;DHT22;5177;50.068;8.156;2022-11-02T04:50:08;9.10;99.90
10263;DHT22;5177;50.068;8.156;2022-11-02T04:52:33;9.00;99.90
10263;DHT22;5177;50.068;8.156;2022-11-02T04:54:59;9.00;99.90
10263;DHT22;5177;50.068;8.156;2022-11-02T04:57:24;9.00;99.90
10263;DHT22;5177;50.068;8.156;2022-11-02T04:59:49;8.90;99.90
10263;DHT22;5177;50.068;8.156;2022-11-02T05:02:15;8.90;99.90
10263;DHT22;5177;50.068;8.156;2022-11-02T05:04:40;8.90;99.90
10263;DHT22;5177;50.068;8.156;2022-11-02T05:07:06;8.80;99.90
10263;DHT22;5177;50.068;8.156;2022-11-02T05:09:32;8.80;99.90
10263;DHT22;5177;50.068;8.156;2022-11-02T05:11:58;8.80;99.90
10263;DHT22;5177;50.068;8.156;2022-11-02T05:14:26;8.70;99.90
10263;DHT22;5177;50.068;8.156;2022-11-02T05:16:51;8.70;99.90
10263;DHT22;5177;50.068;8.156;2022-11-02T05:19:17;8.70;99.90
10263;DHT22;5177;50.068;8.156;2022-11-02T05:21:42;8.70;99.90
10263;DHT22;5177;50.068;8.156;2022-11-02T05:24:08;8.70;99.90
10263;DHT22;5177;50.068;8.156;2022-11-02T05:26:34;8.70;99.90
10263;DHT22;5177;50.068;8.156;2022-11-02T05:28:59;8.60;99.90
10263;DHT22;5177;50.068;8.156;2022-11-02T05:31:24;8.60;99.90
10263;DHT22;5177;50.068;8.156;2022-11-02T05:33:50;8.50;99.90
10263;DHT22;5177;50.068;8.156;2022-11-02T05:36:15;8.60;99.90
10263;DHT22;5177;50.068;8.156;2022-11-02T05:38:41;8.50;99.90
10263;DHT22;5177;50.068;8.156;2022-11-02T05:41:07;8.50;99.90
10263;DHT22;5177;50.068;8.156;2022-11-02T05:43:33;8.50;99.90
10263;DHT22;5177;50.068;8.156;2022-11-02T05:46:00;8.50;99.90
10263;DHT22;5177;50.068;8.156;2022-11-02T05:48:26;8.50;99.90
10263;DHT22;5177;50.068;8.156;2022-11-02T05:50:57;8.50;99.90
10263;DHT22;5177;50.068;8.156;2022-11-02T05:53:23;8.40;99.90
10263;DHT22;5177;50.068;8.156;2022-11-02T05:55:49;8.40;99.90
10263;DHT22;5177;50.068;8.156;2022-11-02T05:58:15;8.40;99.90
10263;DHT22;5177;50.068;8.156;2022-11-02T06:00:41;8.40;99.90
10263;DHT22;5177;50.068;8.156;2022-11-02T06:03:06;8.40;99.90
10263;DHT22;5177;50.068;8.156;2022-11-02T06:05:32;8.30;99.90
10263;DHT22;5177;50.068;8.156;2022-11-02T06:07:58;8.30;99.90
10263;DHT22;5177;50.068;8.156;2022-11-02T06:10:24;8.30;99.90
10263;DHT22;5177;50.068;8.156;2022-11-02T06:12:53;8.30;99.90
10263;DHT22;5177;50.068;8.156;2022-11-02T06:15:19;8.30;99.90
10263;DHT22;5177;50.068;8.156;2022-11-02T06:17:44;8.20;99.90
10263;DHT22;5177;50.068;8.156;2022-11-02T06:20:10;8.30;99.90
10263;DHT22;5177;50.068;8.156;2022-11-02T06:22:39;8.30;99.90
10263;DHT22;5177;50.068;8.156;2022-11-02T06:25:05;8.30;99.90
10263;DHT22;5177;50.068;8.156;2022-11-02T06:27:30;8.20;99.90
10263;DHT22;5177;50.068;8.156;2022-11-02T06:29:56;8.30;99.90
10263;DHT22;5177;50.068;8.156;2022-11-02T06:32:21;8.20;99.90
10263;DHT22;5177;50.068;8.156;2022-11-02T06:34:47;8.30;99.90
10263;DHT22;5177;50.068;8.156;2022-11-02T06:37:12;8.30;99.90
10263;DHT22;5177;50.068;8.156;2022-11-02T06:39:38;8.30;99.90
10263;DHT22;5177;50.068;8.156;2022-11-02T06:42:03;8.40;99.90
10263;DHT22;5177;50.068;8.156;2022-11-02T06:44:29;8.40;99.90
10263;DHT22;5177;50.068;8.156;2022-11-02T06:46:55;8.40;99.90
10263;DHT22;5177;50.068;8.156;2022-11-02T06:49:20;8.50;99.90
10263;DHT22;5177;50.068;8.156;2022-11-02T06:51:46;8.60;99.90
10263;DHT22;5177;50.068;8.156;2022-11-02T06:54:11;8.70;99.90
10263;DHT22;5177;50.068;8.156;2022-11-02T06:56:37;8.90;99.90
10263;DHT22;5177;50.068;8.156;2022-11-02T06:59:02;9.00;99.90
10263;DHT22;5177;50.068;8.156;2022-11-02T07:01:27;9.10;99.90
10263;DHT22;5177;50.068;8.156;2022-11-02T07:03:53;9.20;99.90
10263;DHT22;5177;50.068;8.156;2022-11-02T07:06:19;9.30;99.90
10263;DHT22;5177;50.068;8.156;2022-11-02T07:08:44;9.50;99.90
10263;DHT22;5177;50.068;8.156;2022-11-02T07:11:13;9.60;99.90
10263;DHT22;5177;50.068;8.156;2022-11-02T07:13:39;9.80;99.90
10263;DHT22;5177;50.068;8.156;2022-11-02T07:16:05;10.00;99.90
10263;DHT22;5177;50.068;8.156;2022-11-02T07:18:30;10.20;99.90
10263;DHT22;5177;50.068;8.156;2022-11-02T07:20:57;10.40;99.90
10263;DHT22;5177;50.068;8.156;2022-11-02T07:23:23;10.50;99.90
10263;DHT22;5177;50.068;8.156;2022-11-02T07:25:48;10.70;99.90
10263;DHT22;5177;50.068;8.156;2022-11-02T07:28:14;10.90;99.90
10263;DHT22;5177;50.068;8.156;2022-11-02T07:30:39;11.00;99.90
10263;DHT22;5177;50.068;8.156;2022-11-02T07:33:05;11.10;99.90
10263;DHT22;5177;50.068;8.156;2022-11-02T07:35:30;11.10;99.90
10263;DHT22;5177;50.068;8.156;2022-11-02T07:37:59;11.20;99.90
10263;DHT22;5177;50.068;8.156;2022-11-02T07:40:25;11.10;99.90
10263;DHT22;5177;50.068;8.156;2022-11-02T07:42:51;11.00;99.90
10263;DHT22;5177;50.068;8.156;2022-11-02T07:45:18;10.90;99.90
10263;DHT22;5177;50.068;8.156;2022-11-02T07:47:44;11.00;99.90
10263;DHT22;5177;50.068;8.156;2022-11-02T07:50:10;11.20;99.90
10263;DHT22;5177;50.068;8.156;2022-11-02T07:52:46;11.50;99.90
10263;DHT22;5177;50.068;8.156;2022-11-02T07:55:12;11.70;99.90
10263;DHT22;5177;50.068;8.156;2022-11-02T07:57:38;11.80;99.90
10263;DHT22;5177;50.068;8.156;2022-11-02T08:00:04;12.00;99.90
10263;DHT22;5177;50.068;8.156;2022-11-02T08:02:29;12.20;99.90
10263;DHT22;5177;50.068;8.156;2022-11-02T08:04:55;12.40;99.90
10263;DHT22;5177;50.068;8.156;2022-11-02T08:07:20;12.60;99.90
10263;DHT22;5177;50.068;8.156;2022-11-02T08:09:46;12.90;99.90
10263;DHT22;5177;50.068;8.156;2022-11-02T08:12:11;12.90;99.90
10263;DHT22;5177;50.068;8.156;2022-11-02T08:14:37;13.10;99.90
10263;DHT22;5177;50.068;8.156;2022-11-02T08:17:02;13.10;99.90
10263;DHT22;5177;50.068;8.156;2022-11-02T08:19:28;13.10;99.90
10263;DHT22;5177;50.068;8.156;2022-11-02T08:21:54;13.20;99.90
10263;DHT22;5177;50.068;8.156;2022-11-02T08:24:20;13.30;99.90
10263;DHT22;5177;50.068;8.156;2022-11-02T08:26:45;13.50;99.90
10263;DHT22;5177;50.068;8.156;2022-11-02T08:29:11;13.70;99.90
10263;DHT22;5177;50.068;8.156;2022-11-02T08:31:37;13.90;99.90
10263;DHT22;5177;50.068;8.156;2022-11-02T08:34:02;14.10;99.90
10263;DHT22;5177;50.068;8.156;2022-11-02T08:36:28;14.30;99.90
10263;DHT22;5177;50.068;8.156;2022-11-02T08:38:53;14.50;99.90
10263;DHT22;5177;50.068;8.156;2022-11-02T08:41:19;14.60;99.90
10263;DHT22;5177;50.068;8.156;2022-11-02T08:43:44;14.90;99.90
10263;DHT22;5177;50.068;8.156;2022-11-02T08:46:10;15.00;99.90
10263;DHT22;5177;50.068;8.156;2022-11-02T08:48:35;15.20;99.90
10263;DHT22;5177;50.068;8.156;2022-11-02T08:51:01;15.50;99.90
10263;DHT22;5177;50.068;8.156;2022-11-02T08:53:27;15.50;99.90
10263;DHT22;5177;50.068;8.156;2022-11-02T08:55:52;15.50;99.90
10263;DHT22;5177;50.068;8.156;2022-11-02T08:58:20;15.50;99.90
10263;DHT22;5177;50.068;8.156;2022-11-02T09:00:46;15.60;99.90
10263;DHT22;5177;50.068;8.156;2022-11-02T09:03:12;15.60;99.90
10263;DHT22;5177;50.068;8.156;2022-11-02T09:05:39;15.70;99.90
10263;DHT22;5177;50.068;8.156;2022-11-02T09:08:06;15.90;99.90
10263;DHT22;5177;50.068;8.156;2022-11-02T09:10:32;16.10;99.90
10263;DHT22;5177;50.068;8.156;2022-11-02T09:12:58;15.90;99.90
10263;DHT22;5177;50.068;8.156;2022-11-02T09:15:24;16.10;99.90
10263;DHT22;5177;50.068;8.156;2022-11-02T09:17:50;16.20;99.90
10263;DHT22;5177;50.068;8.156;2022-11-02T09:20:16;15.90;99.90
10263;DHT22;5177;50.068;8.156;2022-11-02T09:22:42;15.80;99.90
10263;DHT22;5177;50.068;8.156;2022-11-02T09:25:08;15.80;99.90
10263;DHT22;5177;50.068;8.156;2022-11-02T09:27:34;15.80;99.90
10263;DHT22;5177;50.068;8.156;2022-11-02T09:29:59;15.50;99.90
10263;DHT22;5177;50.068;8.156;2022-11-02T09:32:25;15.40;99.90
10263;DHT22;5177;50.068;8.156;2022-11-02T09:34:50;15.60;99.90
10263;DHT22;5177;50.068;8.156;2022-11-02T09:37:16;16.00;99.90
10263;DHT22;5177;50.068;8.156;2022-11-02T09:39:42;15.90;99.90
10263;DHT22;5177;50.068;8.156;2022-11-02T09:42:12;15.90;99.90
10263;DHT22;5177;50.068;8.156;2022-11-02T09:47:25;16.10;99.90
10263;DHT22;5177;50.068;8.156;2022-11-02T09:49:52;16.10;99.90
10263;DHT22;5177;50.068;8.156;2022-11-02T09:52:30;16.20;99.90
10263;DHT22;5177;50.068;8.156;2022-11-02T09:54:57;16.40;99.90
10263;DHT22;5177;50.068;8.156;2022-11-02T09:57:27;16.40;99.90
10263;DHT22;5177;50.068;8.156;2022-11-02T09:59:53;16.30;99.90
10263;DHT22;5177;50.068;8.156;2022-11-02T10:10:04;16.60;99.90
10263;DHT22;5177;50.068;8.156;2022-11-02T10:12:36;16.70;99.90
10263;DHT22;5177;50.068;8.156;2022-11-02T10:15:04;16.80;99.90
10263;DHT22;5177;50.068;8.156;2022-11-02T10:17:34;16.90;99.90
10263;DHT22;5177;50.068;8.156;2022-11-02T10:20:03;16.90;99.90
10263;DHT22;5177;50.068;8.156;2022-11-02T10:22:35;17.10;99.90
10263;DHT22;5177;50.068;8.156;2022-11-02T10:25:05;16.90;99.90
10263;DHT22;5177;50.068;8.156;2022-11-02T10:27:32;16.80;99.90
10263;DHT22;5177;50.068;8.156;2022-11-02T10:32:36;16.30;99.90
10263;DHT22;5177;50.068;8.156;2022-11-02T10:35:03;16.10;99.90
10263;DHT22;5177;50.068;8.156;2022-11-02T10:42:46;16.00;1.00
10263;DHT22;5177;50.068;8.156;2022-11-02T10:48:12;16.00;1.00
10263;DHT22;5177;50.068;8.156;2022-11-02T10:50:47;16.10;21.40
10263;DHT22;5177;50.068;8.156;2022-11-02T10:53:16;16.00;99.90
10263;DHT22;5177;50.068;8.156;2022-11-02T10:55:48;16.10;99.90
10263;DHT22;5177;50.068;8.156;2022-11-02T10:58:16;16.30;99.90
10263;DHT22;5177;50.068;8.156;2022-11-02T11:00:43;16.80;99.90
10263;DHT22;5177;50.068;8.156;2022-11-02T11:03:13;17.00;99.90
10263;DHT22;5177;50.068;8.156;2022-11-02T11:08:25;17.40;99.90
10263;DHT22;5177;50.068;8.156;2022-11-02T11:10:52;17.40;99.90
10263;DHT22;5177;50.068;8.156;2022-11-02T11:13:19;17.60;99.90
10263;DHT22;5177;50.068;8.156;2022-11-02T11:15:46;17.50;99.90
10263;DHT22;5177;50.068;8.156;2022-11-02T11:18:16;17.40;99.90
10263;DHT22;5177;50.068;8.156;2022-11-02T11:20:42;17.20;99.90
10263;DHT22;5177;50.068;8.156;2022-11-02T11:23:15;16.90;99.90
10263;DHT22;5177;50.068;8.156;2022-11-02T11:25:41;16.90;99.90
10263;DHT22;5177;50.068;8.156;2022-11-02T11:28:19;16.70;99.90
10263;DHT22;5177;50.068;8.156;2022-11-02T11:30:45;16.50;99.90
10263;DHT22;5177;50.068;8.156;2022-11-02T11:33:15;16.60;99.90
10263;DHT22;5177;50.068;8.156;2022-11-02T11:35:46;16.60;99.90
10263;DHT22;5177;50.068;8.156;2022-11-02T11:38:22;16.60;99.90
10263;DHT22;5177;50.068;8.156;2022-11-02T11:40:52;16.80;99.90
10263;DHT22;5177;50.068;8.156;2022-11-02T11:43:19;17.00;99.90
10263;DHT22;5177;50.068;8.156;2022-11-02T11:45:52;17.00;99.90
10263;DHT22;5177;50.068;8.156;2022-11-02T11:48:32;16.90;99.90
10263;DHT22;5177;50.068;8.156;2022-11-02T11:50:59;16.80;99.90
10263;DHT22;5177;50.068;8.156;2022-11-02T11:53:25;16.70;99.90
10263;DHT22;5177;50.068;8.156;2022-11-02T11:55:51;16.90;99.90
10263;DHT22;5177;50.068;8.156;2022-11-02T11:58:27;17.30;99.90
10263;DHT22;5177;50.068;8.156;2022-11-02T12:03:54;18.00;99.90
10263;DHT22;5177;50.068;8.156;2022-11-02T12:06:37;17.70;99.90
10263;DHT22;5177;50.068;8.156;2022-11-02T12:14:36;17.80;99.90
10263;DHT22;5177;50.068;8.156;2022-11-02T12:17:13;18.10;99.90
10263;DHT22;5177;50.068;8.156;2022-11-02T12:22:20;18.50;99.90
10263;DHT22;5177;50.068;8.156;2022-11-02T12:27:28;18.60;99.90
10263;DHT22;5177;50.068;8.156;2022-11-02T12:30:02;18.60;99.90
10263;DHT22;5177;50.068;8.156;2022-11-02T12:40:17;18.30;99.90
10263;DHT22;5177;50.068;8.156;2022-11-02T12:42:56;18.30;99.90
10263;DHT22;5177;50.068;8.156;2022-11-02T12:48:05;18.20;99.90
10263;DHT22;5177;50.068;8.156;2022-11-02T12:53:20;17.60;99.90
10263;DHT22;5177;50.068;8.156;2022-11-02T12:55:51;17.40;1.00
10263;DHT22;5177;50.068;8.156;2022-11-02T12:58:21;17.10;99.90
10263;DHT22;5177;50.068;8.156;2022-11-02T13:00:48;17.00;99.90
10263;DHT22;5177;50.068;8.156;2022-11-02T13:05:42;17.00;99.90
10263;DHT22;5177;50.068;8.156;2022-11-02T13:08:10;17.30;99.90
10263;DHT22;5177;50.068;8.156;2022-11-02T13:10:42;17.60;99.90
10263;DHT22;5177;50.068;8.156;2022-11-02T13:13:11;17.80;99.90
10263;DHT22;5177;50.068;8.156;2022-11-02T13:15:37;17.90;99.90
10263;DHT22;5177;50.068;8.156;2022-11-02T13:20:49;17.80;99.90
10263;DHT22;5177;50.068;8.156;2022-11-02T13:25:43;17.80;99.90
10263;DHT22;5177;50.068;8.156;2022-11-02T13:28:13;17.90;99.90
10263;DHT22;5177;50.068;8.156;2022-11-02T13:30:40;17.90;99.90
10263;DHT22;5177;50.068;8.156;2022-11-02T13:33:11;17.90;99.90
10263;DHT22;5177;50.068;8.156;2022-11-02T13:35:38;17.90;99.90
10263;DHT22;5177;50.068;8.156;2022-11-02T13:40:39;17.40;99.90
10263;DHT22;5177;50.068;8.156;2022-11-02T13:43:19;17.00;99.90
10263;DHT22;5177;50.068;8.156;2022-11-02T13:45:57;16.80;99.90
10263;DHT22;5177;50.068;8.156;2022-11-02T13:48:30;16.60;99.90
10263;DHT22;5177;50.068;8.156;2022-11-02T13:51:02;16.70;99.90
10263;DHT22;5177;50.068;8.156;2022-11-02T13:53:31;17.00;1.00
10263;DHT22;5177;50.068;8.156;2022-11-02T13:55:59;17.30;1.00
10263;DHT22;5177;50.068;8.156;2022-11-02T13:58:27;17.40;99.90
10263;DHT22;5177;50.068;8.156;2022-11-02T14:01:00;17.60;99.90
10263;DHT22;5177;50.068;8.156;2022-11-02T14:06:02;17.70;99.90
10263;DHT22;5177;50.068;8.156;2022-11-02T14:08:36;17.70;99.90
10263;DHT22;5177;50.068;8.156;2022-11-02T14:11:48;17.60;99.90
10263;DHT22;5177;50.068;8.156;2022-11-02T14:27:43;16.70;99.90
10263;DHT22;5177;50.068;8.156;2022-11-02T14:32:13;16.50;99.90
10263;DHT22;5177;50.068;8.156;2022-11-02T14:34:44;16.50;99.90
10263;DHT22;5177;50.068;8.156;2022-11-02T14:47:26;16.30;1.00
10263;DHT22;5177;50.068;8.156;2022-11-02T14:52:36;16.20;99.90
10263;DHT22;5177;50.068;8.156;2022-11-02T14:57:35;15.90;99.90
10263;DHT22;5177;50.068;8.156;2022-11-02T15:00:04;15.80;99.90
10263;DHT22;5177;50.068;8.156;2022-11-02T15:02:40;15.80;99.90
10263;DHT22;5177;50.068;8.156;2022-11-02T15:05:07;15.70;99.90
10263;DHT22;5177;50.068;8.156;2022-11-02T15:07:37;15.70;99.90
10263;DHT22;5177;50.068;8.156;2022-11-02T15:12:43;15.60;21.70
10263;DHT22;5177;50.068;8.156;2022-11-02T15:17:50;15.50;99.90
10263;DHT22;5177;50.068;8.156;2022-11-02T15:20:23;15.30;1.00
10263;DHT22;5177;50.068;8.156;2022-11-02T15:22:51;15.30;99.90
10263;DHT22;5177;50.068;8.156;2022-11-02T15:27:50;15.20;1.00
10263;DHT22;5177;50.068;8.156;2022-11-02T15:30:20;15.20;59.20
10263;DHT22;5177;50.068;8.156;2022-11-02T15:32:48;15.20;99.90
10263;DHT22;5177;50.068;8.156;2022-11-02T15:35:21;15.10;99.90
10263;DHT22;5177;50.068;8.156;2022-11-02T15:37:49;15.10;99.90
10263;DHT22;5177;50.068;8.156;2022-11-02T15:40:18;15.00;99.90
10263;DHT22;5177;50.068;8.156;2022-11-02T15:42:46;14.90;99.90
10263;DHT22;5177;50.068;8.156;2022-11-02T15:52:55;14.70;99.90
10263;DHT22;5177;50.068;8.156;2022-11-02T15:55:38;14.60;99.90
10263;DHT22;5177;50.068;8.156;2022-11-02T16:00:32;14.50;99.90
10263;DHT22;5177;50.068;8.156;2022-11-02T16:03:15;14.40;99.90
10263;DHT22;5177;50.068;8.156;2022-11-02T16:05:45;14.40;99.90
10263;DHT22;5177;50.068;8.156;2022-11-02T16:08:23;14.30;99.90
10263;DHT22;5177;50.068;8.156;2022-11-02T16:10:50;14.20;99.90
10263;DHT22;5177;50.068;8.156;2022-11-02T16:13:17;14.20;99.90
10263;DHT22;5177;50.068;8.156;2022-11-02T16:15:44;14.00;99.90
10263;DHT22;5177;50.068;8.156;2022-11-02T16:18:23;14.00;99.90
10263;DHT22;5177;50.068;8.156;2022-11-02T16:20:49;13.80;99.90
10263;DHT22;5177;50.068;8.156;2022-11-02T16:23:17;13.70;99.90
10263;DHT22;5177;50.068;8.156;2022-11-02T16:25:45;13.70;99.90
10263;DHT22;5177;50.068;8.156;2022-11-02T16:30:58;13.60;99.90
10263;DHT22;5177;50.068;8.156;2022-11-02T16:33:25;13.50;99.90
10263;DHT22;5177;50.068;8.156;2022-11-02T16:35:54;13.40;99.90
10263;DHT22;5177;50.068;8.156;2022-11-02T16:38:19;13.40;99.90
10263;DHT22;5177;50.068;8.156;2022-11-02T16:40:46;13.40;99.90
10263;DHT22;5177;50.068;8.156;2022-11-02T16:43:12;13.30;99.90
10263;DHT22;5177;50.068;8.156;2022-11-02T16:45:38;13.20;99.90
10263;DHT22;5177;50.068;8.156;2022-11-02T16:51:04;13.30;99.90
10263;DHT22;5177;50.068;8.156;2022-11-02T16:53:30;13.20;99.90
10263;DHT22;5177;50.068;8.156;2022-11-02T16:56:42;13.10;99.90
10263;DHT22;5177;50.068;8.156;2022-11-02T16:58:46;13.10;99.90
10263;DHT22;5177;50.068;8.156;2022-11-02T17:01:19;13.00;99.90
10263;DHT22;5177;50.068;8.156;2022-11-02T17:03:46;13.00;99.90
10263;DHT22;5177;50.068;8.156;2022-11-02T17:06:12;12.80;99.90
10263;DHT22;5177;50.068;8.156;2022-11-02T17:08:37;12.80;99.90
10263;DHT22;5177;50.068;8.156;2022-11-02T17:11:04;12.70;99.90
10263;DHT22;5177;50.068;8.156;2022-11-02T17:13:31;12.70;99.90
10263;DHT22;5177;50.068;8.156;2022-11-02T17:16:05;12.70;99.90
10263;DHT22;5177;50.068;8.156;2022-11-02T17:18:33;12.60;99.90
10263;DHT22;5177;50.068;8.156;2022-11-02T17:21:13;12.50;99.90
10263;DHT22;5177;50.068;8.156;2022-11-02T17:23:40;12.40;99.90
10263;DHT22;5177;50.068;8.156;2022-11-02T17:28:51;12.30;99.90
10263;DHT22;5177;50.068;8.156;2022-11-02T17:31:20;12.30;1.00
10263;DHT22;5177;50.068;8.156;2022-11-02T17:33:46;12.20;99.90
10263;DHT22;5177;50.068;8.156;2022-11-02T17:36:12;12.10;1.00
10263;DHT22;5177;50.068;8.156;2022-11-02T17:38:38;12.10;1.00
10263;DHT22;5177;50.068;8.156;2022-11-02T17:41:04;12.10;99.90
10263;DHT22;5177;50.068;8.156;2022-11-02T17:43:52;12.20;1.00
10263;DHT22;5177;50.068;8.156;2022-11-02T17:46:17;12.20;1.00
10263;DHT22;5177;50.068;8.156;2022-11-02T17:48:43;12.10;99.90
10263;DHT22;5177;50.068;8.156;2022-11-02T17:51:09;12.20;1.00
10263;DHT22;5177;50.068;8.156;2022-11-02T17:53:39;12.00;1.00
10263;DHT22;5177;50.068;8.156;2022-11-02T17:56:05;12.10;1.00
10263;DHT22;5177;50.068;8.156;2022-11-02T17:58:31;12.00;1.00
10263;DHT22;5177;50.068;8.156;2022-11-02T18:00:56;12.00;1.00
10263;DHT22;5177;50.068;8.156;2022-11-02T18:03:22;12.10;1.00
10263;DHT22;5177;50.068;8.156;2022-11-02T18:05:48;12.00;1.00
10263;DHT22;5177;50.068;8.156;2022-11-02T18:08:17;11.90;1.00
10263;DHT22;5177;50.068;8.156;2022-11-02T18:10:43;11.90;1.00
10263;DHT22;5177;50.068;8.156;2022-11-02T18:13:13;11.90;1.00
10263;DHT22;5177;50.068;8.156;2022-11-02T18:15:39;11.80;1.00
10263;DHT22;5177;50.068;8.156;2022-11-02T18:18:04;11.80;1.00
10263;DHT22;5177;50.068;8.156;2022-11-02T18:20:30;11.70;1.00
10263;DHT22;5177;50.068;8.156;2022-11-02T18:22:57;11.80;1.00
10263;DHT22;5177;50.068;8.156;2022-11-02T18:25:23;11.80;1.00